createdAt,value
2019-05-25T00:01:35.070Z,8.97
2019-05-25T00:04:08.675Z,9.60
2019-05-25T00:06:40.112Z,9.87
2019-05-25T00:09:09.960Z,5.80
2019-05-25T00:11:41.455Z,9.77
2019-05-25T00:14:14.793Z,7.43
2019-05-25T00:16:46.989Z,10.20
2019-05-25T00:19:19.039Z,6.80
2019-05-25T00:21:50.724Z,6.57
2019-05-25T00:24:22.025Z,5.60
2019-05-25T00:26:53.638Z,7.83
2019-05-25T00:29:24.974Z,6.27
2019-05-25T00:31:56.888Z,6.53
2019-05-25T00:34:28.423Z,7.40
2019-05-25T00:37:00.374Z,6.17
2019-05-25T00:39:32.017Z,6.80
2019-05-25T00:42:03.824Z,8.37
2019-05-25T00:44:36.138Z,6.00
2019-05-25T00:47:07.461Z,8.83
2019-05-25T00:49:42.170Z,7.07
2019-05-25T00:52:14.818Z,6.63
2019-05-25T00:54:46.249Z,7.70
2019-05-25T00:57:17.799Z,6.43
2019-05-25T00:59:49.769Z,11.57
2019-05-25T01:02:21.950Z,7.60
2019-05-25T01:04:53.686Z,6.17
2019-05-25T01:07:25.139Z,5.70
2019-05-25T01:09:56.564Z,6.73
2019-05-25T01:12:27.933Z,10.97
2019-05-25T01:15:00.118Z,4.50
2019-05-25T01:17:31.634Z,6.27
2019-05-25T01:20:03.236Z,4.03
2019-05-25T01:22:36.494Z,6.13
2019-05-25T01:25:08.692Z,5.20
2019-05-25T01:27:41.167Z,5.03
2019-05-25T01:30:15.127Z,5.50
2019-05-25T01:32:46.859Z,5.07
2019-05-25T01:35:18.628Z,4.97
2019-05-25T01:37:50.594Z,4.90
2019-05-25T01:40:22.725Z,3.97
2019-05-25T01:42:54.240Z,5.33
2019-05-25T01:45:44.952Z,8.03
2019-05-25T01:48:16.639Z,4.83
2019-05-25T01:50:49.364Z,4.83
2019-05-25T01:53:20.792Z,5.00
2019-05-25T01:55:53.104Z,6.10
2019-05-25T01:58:24.440Z,5.70
2019-05-25T02:00:55.879Z,6.13
2019-05-25T02:03:27.414Z,4.95
2019-05-25T02:06:00.131Z,8.00
2019-05-25T02:08:31.338Z,7.87
2019-05-25T02:11:02.830Z,7.93
2019-05-25T02:13:36.334Z,7.30
2019-05-25T02:16:09.699Z,5.27
2019-05-25T02:18:41.219Z,10.03
2019-05-25T02:21:13.790Z,8.37
2019-05-25T02:23:45.658Z,5.83
2019-05-25T02:26:17.093Z,13.87
2019-05-25T02:28:49.435Z,8.43
2019-05-25T02:31:20.979Z,7.33
2019-05-25T02:33:52.523Z,6.87
2019-05-25T02:36:23.830Z,8.70
2019-05-25T02:38:55.356Z,6.83
2019-05-25T02:41:27.597Z,13.47
2019-05-25T02:43:59.004Z,10.77
2019-05-25T02:46:31.424Z,8.70
2019-05-25T02:49:03.485Z,9.57
2019-05-25T02:51:34.808Z,11.70
2019-05-25T02:54:07.127Z,10.03
2019-05-25T02:56:38.644Z,9.67
2019-05-25T02:59:10.508Z,9.73
2019-05-25T03:01:41.999Z,16.07
2019-05-25T03:04:13.889Z,11.27
2019-05-25T03:06:46.399Z,8.87
2019-05-25T03:09:21.205Z,11.97
2019-05-25T03:11:53.603Z,9.93
2019-05-25T03:14:25.634Z,12.97
2019-05-25T03:16:56.984Z,8.73
2019-05-25T03:19:29.480Z,12.00
2019-05-25T03:22:01.048Z,11.13
2019-05-25T03:24:32.549Z,11.47
2019-05-25T03:27:04.104Z,9.37
2019-05-25T03:29:36.223Z,9.93
2019-05-25T03:32:07.692Z,9.87
2019-05-25T03:34:39.770Z,8.63
2019-05-25T03:37:11.114Z,8.83
2019-05-25T03:39:42.645Z,8.47
2019-05-25T03:42:14.697Z,8.47
2019-05-25T03:44:47.360Z,8.43
2019-05-25T03:47:19.402Z,9.13
2019-05-25T03:49:50.867Z,8.00
2019-05-25T03:52:23.072Z,8.13
2019-05-25T03:54:54.960Z,7.10
2019-05-25T03:57:27.431Z,10.47
2019-05-25T03:59:58.825Z,8.43
2019-05-25T04:02:30.477Z,8.03
2019-05-25T04:05:03.105Z,7.77
2019-05-25T04:07:35.582Z,9.77
2019-05-25T04:10:08.280Z,9.10
2019-05-25T04:12:39.603Z,7.40
2019-05-25T04:15:11.099Z,9.97
2019-05-25T04:17:44.166Z,8.07
2019-05-25T04:20:16.270Z,7.37
2019-05-25T04:22:48.129Z,7.77
2019-05-25T04:25:19.663Z,9.57
2019-05-25T04:27:51.136Z,10.85
2019-05-25T04:30:23.256Z,10.13
2019-05-25T04:32:55.558Z,7.73
2019-05-25T04:35:28.708Z,8.20
2019-05-25T04:38:01.192Z,7.50
2019-05-25T04:40:33.069Z,4.60
2019-05-25T04:43:04.843Z,6.78
2019-05-25T04:45:36.489Z,5.57
2019-05-25T04:48:08.276Z,6.43
2019-05-25T04:50:39.600Z,6.90
2019-05-25T04:53:11.275Z,3.90
2019-05-25T04:55:42.492Z,7.67
2019-05-25T04:58:13.843Z,3.12
2019-05-25T05:00:46.756Z,5.95
2019-05-25T05:03:19.083Z,5.15
2019-05-25T05:05:50.823Z,3.85
2019-05-25T05:08:23.245Z,3.30
2019-05-25T05:10:55.376Z,3.12
2019-05-25T05:13:26.899Z,4.42
2019-05-25T05:15:58.952Z,2.35
2019-05-25T05:18:30.756Z,5.97
2019-05-25T05:21:02.126Z,2.27
2019-05-25T05:23:33.933Z,4.37
2019-05-25T05:26:05.368Z,4.00
2019-05-25T05:28:36.783Z,6.22
2019-05-25T05:31:22.632Z,5.50
2019-05-25T05:33:41.115Z,5.10
2019-05-25T05:36:15.587Z,3.35
2019-05-25T05:38:48.861Z,3.40
2019-05-25T05:41:20.754Z,3.25
2019-05-25T05:43:54.955Z,3.75
2019-05-25T05:46:27.813Z,4.00
2019-05-25T05:48:59.697Z,3.37
2019-05-25T05:51:33.876Z,5.12
2019-05-25T05:54:06.062Z,3.75
2019-05-25T05:56:37.390Z,5.70
2019-05-25T05:59:09.741Z,4.90
2019-05-25T06:01:41.765Z,5.75
2019-05-25T06:04:13.267Z,4.87
2019-05-25T06:06:44.565Z,5.83
2019-05-25T06:09:18.667Z,5.30
2019-05-25T06:11:50.013Z,3.62
2019-05-25T06:14:21.395Z,11.45
2019-05-25T06:16:52.866Z,3.65
2019-05-25T06:19:24.736Z,4.95
2019-05-25T06:21:56.564Z,8.30
2019-05-25T06:24:28.382Z,2.58
2019-05-25T06:27:01.833Z,4.53
2019-05-25T06:29:33.319Z,4.60
2019-05-25T06:32:06.066Z,5.15
2019-05-25T06:34:37.354Z,2.42
2019-05-25T06:37:09.748Z,3.17
2019-05-25T06:39:41.827Z,2.22
2019-05-25T06:42:13.856Z,5.85
2019-05-25T06:44:47.196Z,3.60
2019-05-25T06:47:18.548Z,3.62
2019-05-25T06:49:50.124Z,3.42
2019-05-25T06:52:22.300Z,6.53
2019-05-25T06:54:54.943Z,2.35
2019-05-25T06:57:40.324Z,3.92
2019-05-25T07:00:00.065Z,3.72
2019-05-25T07:02:33.017Z,3.65
2019-05-25T07:05:04.904Z,4.55
2019-05-25T07:07:37.014Z,3.22
2019-05-25T07:10:10.949Z,3.30
2019-05-25T07:12:43.138Z,7.45
2019-05-25T07:15:15.382Z,2.12
2019-05-25T07:17:47.179Z,2.27
2019-05-25T07:20:20.540Z,4.03
2019-05-25T07:22:53.554Z,2.47
2019-05-25T07:25:25.379Z,5.10
2019-05-25T07:28:00.048Z,2.47
2019-05-25T07:30:30.125Z,4.25
2019-05-25T07:33:02.428Z,3.75
2019-05-25T07:35:33.722Z,2.98
2019-05-25T07:38:07.795Z,2.83
2019-05-25T07:40:40.081Z,3.27
2019-05-25T07:43:12.159Z,4.20
2019-05-25T07:45:44.963Z,6.35
2019-05-25T07:48:17.541Z,4.90
2019-05-25T07:50:48.868Z,4.17
2019-05-25T07:53:21.345Z,7.10
2019-05-25T07:55:53.018Z,8.45
2019-05-25T07:58:25.574Z,2.85
2019-05-25T08:00:57.893Z,4.28
2019-05-25T08:03:31.502Z,6.00
2019-05-25T08:06:04.044Z,5.80
2019-05-25T08:08:36.525Z,4.67
2019-05-25T08:11:08.752Z,6.28
2019-05-25T08:13:41.309Z,7.75
2019-05-25T08:16:12.680Z,5.55
2019-05-25T08:18:46.550Z,3.62
2019-05-25T08:21:18.231Z,3.52
2019-05-25T08:23:49.675Z,3.80
2019-05-25T08:26:22.047Z,2.27
2019-05-25T08:28:54.325Z,4.37
2019-05-25T08:31:25.747Z,4.67
2019-05-25T08:33:57.048Z,4.40
2019-05-25T08:36:29.859Z,2.77
2019-05-25T08:39:01.418Z,5.45
2019-05-25T08:41:34.595Z,4.37
2019-05-25T08:44:05.959Z,3.52
2019-05-25T08:46:37.232Z,2.87
2019-05-25T08:49:09.102Z,2.90
2019-05-25T08:51:41.825Z,3.17
2019-05-25T08:54:13.996Z,4.53
2019-05-25T08:56:46.130Z,2.55
2019-05-25T08:59:18.740Z,4.53
2019-05-25T09:01:50.429Z,3.87
2019-05-25T09:04:25.546Z,7.72
2019-05-25T09:06:55.668Z,5.37
2019-05-25T09:09:27.759Z,5.85
2019-05-25T09:11:59.109Z,3.58
2019-05-25T09:14:32.053Z,4.92
2019-05-25T09:17:05.111Z,4.75
2019-05-25T09:19:37.860Z,3.90
2019-05-25T09:22:09.909Z,3.27
2019-05-25T09:24:41.623Z,4.17
2019-05-25T09:27:14.214Z,7.35
2019-05-25T09:29:47.838Z,3.80
2019-05-25T09:32:19.401Z,3.95
2019-05-25T09:34:52.108Z,2.62
2019-05-25T09:37:23.451Z,5.60
2019-05-25T09:39:55.470Z,4.28
2019-05-25T09:42:27.253Z,4.53
2019-05-25T09:45:00.437Z,6.28
2019-05-25T09:47:31.734Z,6.00
2019-05-25T09:50:05.086Z,4.53
2019-05-25T09:52:36.391Z,3.45
2019-05-25T09:55:10.720Z,9.35
2019-05-25T09:57:42.218Z,7.45
2019-05-25T10:00:16.401Z,9.83
2019-05-25T10:02:49.559Z,15.45
2019-05-25T10:05:20.979Z,4.78
2019-05-25T10:07:52.334Z,11.55
2019-05-25T10:10:25.058Z,8.15
2019-05-25T10:12:57.222Z,5.30
2019-05-25T10:15:29.078Z,9.10
2019-05-25T10:18:01.221Z,7.50
2019-05-25T10:20:34.512Z,12.53
2019-05-25T10:23:07.118Z,6.67
2019-05-25T10:25:40.707Z,5.10
2019-05-25T10:28:12.247Z,4.65
2019-05-25T10:30:45.138Z,4.85
2019-05-25T10:33:16.591Z,7.30
2019-05-25T10:35:48.604Z,5.83
2019-05-25T10:38:20.045Z,7.97
2019-05-25T10:40:51.658Z,5.30
2019-05-25T10:43:25.250Z,8.03
2019-05-25T10:45:56.683Z,4.60
2019-05-25T10:48:28.972Z,5.33
2019-05-25T10:51:02.054Z,5.80
2019-05-25T10:53:33.594Z,5.60
2019-05-25T10:56:05.339Z,4.67
2019-05-25T10:58:36.655Z,6.83
2019-05-25T11:01:09.683Z,6.72
2019-05-25T11:03:41.754Z,9.63
2019-05-25T11:06:13.957Z,6.08
2019-05-25T11:08:45.634Z,7.42
2019-05-25T11:11:16.973Z,7.70
2019-05-25T11:13:48.473Z,3.98
2019-05-25T11:16:21.727Z,8.50
2019-05-25T11:18:53.132Z,4.35
2019-05-25T11:21:25.276Z,5.72
2019-05-25T11:23:58.025Z,2.55
2019-05-25T11:26:30.577Z,5.35
2019-05-25T11:29:02.190Z,6.00
2019-05-25T11:31:34.457Z,7.47
2019-05-25T11:34:06.897Z,2.98
2019-05-25T11:36:38.606Z,5.70
2019-05-25T11:39:09.983Z,7.22
2019-05-25T11:41:41.345Z,10.65
2019-05-25T11:44:13.229Z,5.83
2019-05-25T11:46:45.637Z,6.55
2019-05-25T11:49:22.414Z,3.50
2019-05-25T11:51:53.653Z,4.28
2019-05-25T11:54:25.306Z,2.92
2019-05-25T11:56:57.121Z,8.48
2019-05-25T11:59:30.400Z,6.67
2019-05-25T12:02:03.591Z,7.05
2019-05-25T12:04:36.416Z,4.87
2019-05-25T12:07:08.382Z,3.15
2019-05-25T12:09:40.376Z,6.70
2019-05-25T12:12:14.690Z,5.83
2019-05-25T12:14:46.764Z,5.45
2019-05-25T12:17:18.302Z,5.87
2019-05-25T12:19:50.177Z,3.70
2019-05-25T12:22:21.895Z,5.20
2019-05-25T12:24:53.491Z,3.67
2019-05-25T12:27:25.970Z,5.80
2019-05-25T12:29:57.417Z,5.53
2019-05-25T12:32:29.528Z,6.25
2019-05-25T12:35:01.441Z,7.70
2019-05-25T12:37:33.517Z,3.37
2019-05-25T12:40:08.226Z,4.85
2019-05-25T12:42:40.278Z,6.72
2019-05-25T12:45:13.895Z,3.67
2019-05-25T12:47:45.574Z,3.58
2019-05-25T12:50:18.568Z,6.72
2019-05-25T12:52:50.907Z,3.95
2019-05-25T12:55:23.478Z,5.72
2019-05-25T12:57:54.892Z,5.42
2019-05-25T13:00:27.441Z,5.12
2019-05-25T13:02:58.837Z,4.85
2019-05-25T13:05:34.269Z,2.83
2019-05-25T13:08:04.094Z,4.58
2019-05-25T13:10:37.120Z,5.75
2019-05-25T13:13:08.926Z,4.60
2019-05-25T13:15:40.732Z,6.40
2019-05-25T13:18:12.096Z,6.83
2019-05-25T13:20:43.583Z,5.12
2019-05-25T13:23:15.062Z,6.00
2019-05-25T13:25:47.270Z,6.17
2019-05-25T13:28:19.556Z,8.15
2019-05-25T13:30:51.590Z,2.87
2019-05-25T13:33:23.651Z,3.08
2019-05-25T13:35:56.368Z,3.47
2019-05-25T13:38:29.394Z,4.78
2019-05-25T13:41:01.993Z,7.37
2019-05-25T13:43:34.383Z,3.62
2019-05-25T13:46:05.917Z,6.50
2019-05-25T13:48:39.161Z,8.50
2019-05-25T13:51:12.357Z,4.17
2019-05-25T13:53:44.678Z,4.15
2019-05-25T13:56:16.221Z,8.80
2019-05-25T13:58:49.913Z,3.55
2019-05-25T14:01:28.332Z,5.20
2019-05-25T14:03:55.872Z,3.52
2019-05-25T14:06:28.140Z,8.75
2019-05-25T14:08:59.518Z,4.62
2019-05-25T14:11:30.875Z,6.45
2019-05-25T14:14:03.584Z,6.08
2019-05-25T14:16:36.040Z,3.20
2019-05-25T14:19:07.437Z,6.42
2019-05-25T14:21:39.962Z,4.70
2019-05-25T14:24:11.748Z,4.83
2019-05-25T14:26:43.897Z,5.35
2019-05-25T14:29:17.121Z,2.95
2019-05-25T14:31:49.106Z,4.42
2019-05-25T14:34:24.195Z,3.87
2019-05-25T14:36:55.967Z,3.05
2019-05-25T14:39:28.141Z,5.00
2019-05-25T14:42:00.208Z,6.00
2019-05-25T14:44:32.379Z,4.83
2019-05-25T14:47:04.560Z,4.62
2019-05-25T14:49:37.611Z,3.98
2019-05-25T14:52:10.843Z,5.05
2019-05-25T14:54:42.813Z,5.60
2019-05-25T14:57:14.343Z,7.55
2019-05-25T14:59:46.003Z,3.67
2019-05-25T15:02:17.316Z,3.87
2019-05-25T15:04:49.693Z,4.97
2019-05-25T15:07:21.715Z,6.45
2019-05-25T15:09:53.373Z,4.80
2019-05-25T15:12:25.021Z,5.87
2019-05-25T15:14:56.561Z,4.30
2019-05-25T15:17:27.977Z,6.70
2019-05-25T15:19:59.642Z,4.70
2019-05-25T15:22:33.036Z,4.37
2019-05-25T15:25:04.864Z,3.87
2019-05-25T15:27:37.560Z,6.05
2019-05-25T15:30:12.194Z,9.50
2019-05-25T15:32:44.701Z,4.10
2019-05-25T15:35:20.150Z,2.98
2019-05-25T15:37:53.512Z,3.08
2019-05-25T15:40:25.263Z,4.47
2019-05-25T15:42:56.822Z,3.25
2019-05-25T15:45:28.952Z,3.42
2019-05-25T15:48:00.575Z,2.90
2019-05-25T15:50:32.910Z,4.12
2019-05-25T15:53:04.735Z,3.25
2019-05-25T15:55:36.569Z,5.25
2019-05-25T15:58:08.303Z,6.25
2019-05-25T16:00:47.775Z,3.37
2019-05-25T16:03:22.195Z,6.47
2019-05-25T16:05:58.188Z,4.15
2019-05-25T16:08:29.896Z,8.55
2019-05-25T16:11:01.406Z,6.42
2019-05-25T16:13:34.625Z,4.62
2019-05-25T16:16:06.641Z,3.08
2019-05-25T16:18:38.012Z,9.48
2019-05-25T16:21:10.279Z,5.30
2019-05-25T16:23:41.730Z,3.40
2019-05-25T16:26:14.209Z,5.90
2019-05-25T16:28:45.693Z,6.28
2019-05-25T16:31:17.148Z,4.25
2019-05-25T16:33:50.007Z,3.58
2019-05-25T16:36:21.928Z,4.70
2019-05-25T16:38:54.715Z,4.03
2019-05-25T16:41:26.492Z,5.37
2019-05-25T16:43:57.851Z,5.42
2019-05-25T16:46:30.440Z,4.45
2019-05-25T16:49:04.238Z,6.05
2019-05-25T16:51:36.835Z,7.65
2019-05-25T16:54:08.782Z,4.08
2019-05-25T16:56:41.088Z,5.08
2019-05-25T16:59:13.258Z,5.33
2019-05-25T17:01:48.657Z,4.75
2019-05-25T17:04:18.328Z,4.17
2019-05-25T17:06:49.740Z,6.30
2019-05-25T17:09:22.947Z,5.10
2019-05-25T17:11:54.915Z,6.37
2019-05-25T17:14:27.409Z,6.55
2019-05-25T17:16:59.709Z,4.35
2019-05-25T17:19:32.100Z,5.20
2019-05-25T17:22:05.354Z,5.25
2019-05-25T17:24:38.526Z,4.70
2019-05-25T17:27:12.493Z,8.33
2019-05-25T17:29:44.189Z,6.25
2019-05-25T17:32:15.561Z,4.25
2019-05-25T17:34:49.227Z,6.62
2019-05-25T17:37:21.724Z,5.75
2019-05-25T17:39:54.218Z,4.65
2019-05-25T17:42:26.432Z,3.00
2019-05-25T17:45:00.095Z,3.22
2019-05-25T17:47:31.733Z,4.75
2019-05-25T17:50:03.432Z,4.55
2019-05-25T17:52:36.124Z,4.45
2019-05-25T17:55:07.625Z,4.62
2019-05-25T17:57:39.006Z,6.42
2019-05-25T18:00:11.891Z,6.05
2019-05-25T18:02:44.024Z,5.22
2019-05-25T18:05:15.804Z,7.53
2019-05-25T18:07:48.775Z,12.90
2019-05-25T18:10:23.018Z,12.03
2019-05-25T18:12:55.006Z,10.30
2019-05-25T18:15:26.885Z,6.80
2019-05-25T18:17:58.210Z,8.33
2019-05-25T18:20:29.915Z,6.75
2019-05-25T18:23:03.412Z,5.97
2019-05-25T18:25:35.627Z,5.33
2019-05-25T18:28:08.879Z,6.77
2019-05-25T18:30:41.787Z,6.10
2019-05-25T18:33:14.106Z,6.10
2019-05-25T18:35:45.925Z,5.83
2019-05-25T18:38:17.272Z,8.57
2019-05-25T18:40:48.672Z,15.00
2019-05-25T18:43:20.077Z,30.50
2019-05-25T18:45:54.160Z,18.02
2019-05-25T18:48:25.470Z,15.60
2019-05-25T18:50:57.032Z,11.13
2019-05-25T18:53:28.501Z,10.27
2019-05-25T18:56:01.120Z,7.83
2019-05-25T18:58:33.234Z,6.70
2019-05-25T19:01:04.745Z,8.47
2019-05-25T19:03:36.080Z,9.37
2019-05-25T19:06:07.379Z,10.00
2019-05-25T19:08:39.779Z,7.30
2019-05-25T19:11:12.085Z,9.27
2019-05-25T19:13:44.480Z,7.40
2019-05-25T19:16:15.797Z,7.53
2019-05-25T19:18:47.985Z,5.50
2019-05-25T19:21:20.052Z,8.37
2019-05-25T19:23:53.589Z,6.97
2019-05-25T19:26:25.013Z,7.73
2019-05-25T19:28:56.416Z,8.00
2019-05-25T19:31:28.631Z,8.47
2019-05-25T19:34:01.058Z,11.57
2019-05-25T19:36:32.307Z,8.70
2019-05-25T19:39:06.829Z,6.93
2019-05-25T19:41:38.914Z,6.87
2019-05-25T19:44:11.093Z,7.73
2019-05-25T19:46:42.358Z,8.07
2019-05-25T19:49:13.825Z,8.07
2019-05-25T19:51:46.488Z,5.07
2019-05-25T19:54:17.901Z,7.60
2019-05-25T19:56:49.938Z,7.57
2019-05-25T19:59:22.107Z,5.83
2019-05-25T20:01:53.589Z,6.33
2019-05-25T20:04:24.932Z,9.33
2019-05-25T20:06:58.134Z,8.33
2019-05-25T20:09:31.734Z,8.53
2019-05-25T20:12:03.919Z,6.87
2019-05-25T20:14:36.189Z,7.07
2019-05-25T20:17:08.568Z,7.83
2019-05-25T20:19:40.002Z,6.20
2019-05-25T20:22:11.424Z,8.20
2019-05-25T20:24:43.989Z,7.13
2019-05-25T20:27:18.755Z,7.83
2019-05-25T20:29:51.042Z,7.97
2019-05-25T20:32:22.914Z,10.97
2019-05-25T20:34:55.183Z,8.83
2019-05-25T20:37:27.468Z,10.13
2019-05-25T20:40:00.679Z,7.50
2019-05-25T20:42:33.931Z,10.87
2019-05-25T20:45:08.019Z,8.13
2019-05-25T20:47:39.894Z,9.13
2019-05-25T20:50:11.960Z,7.90
2019-05-25T20:52:44.094Z,9.00
2019-05-25T20:55:19.325Z,8.83
2019-05-25T20:57:51.348Z,9.67
2019-05-25T21:00:24.322Z,8.77
2019-05-25T21:03:06.146Z,8.90
2019-05-25T21:05:30.582Z,6.47
2019-05-25T21:08:01.962Z,9.43
2019-05-25T21:10:34.427Z,9.10
2019-05-25T21:13:06.208Z,8.37
2019-05-25T21:15:39.257Z,9.13
2019-05-25T21:18:13.087Z,12.50
2019-05-25T21:20:45.405Z,9.23
2019-05-25T21:23:18.931Z,7.97
2019-05-25T21:25:51.412Z,7.97
2019-05-25T21:28:23.079Z,6.97
2019-05-25T21:30:54.638Z,9.67
2019-05-25T21:33:26.155Z,8.20
2019-05-25T21:36:08.274Z,7.77
2019-05-25T21:38:36.914Z,7.07
2019-05-25T21:41:09.476Z,9.27
2019-05-25T21:43:42.244Z,10.37
2019-05-25T21:46:15.455Z,8.90
2019-05-25T21:48:47.284Z,9.73
2019-05-25T21:51:21.099Z,12.77
2019-05-25T21:53:53.345Z,9.00
2019-05-25T21:56:25.408Z,13.10
2019-05-25T21:58:56.864Z,12.83
2019-05-25T22:01:28.559Z,8.57
2019-05-25T22:04:01.224Z,9.70
2019-05-25T22:06:32.635Z,12.43
2019-05-25T22:09:05.713Z,8.63
2019-05-25T22:11:38.399Z,6.27
2019-05-25T22:14:13.208Z,8.53
2019-05-25T22:16:46.636Z,10.57
2019-05-25T22:19:18.512Z,13.03
2019-05-25T22:21:50.148Z,8.47
2019-05-25T22:24:22.784Z,7.17
2019-05-25T22:26:55.342Z,9.47
2019-05-25T22:29:26.675Z,10.93
2019-05-25T22:31:58.283Z,9.63
2019-05-25T22:34:31.639Z,8.73
2019-05-25T22:37:04.296Z,10.93
2019-05-25T22:39:37.393Z,10.37
2019-05-25T22:42:09.147Z,8.13
2019-05-25T22:44:41.626Z,9.37
2019-05-25T22:47:14.609Z,8.80
2019-05-25T22:49:47.581Z,10.57
2019-05-25T22:52:19.629Z,8.43
2019-05-25T22:54:51.913Z,10.63
2019-05-25T22:57:24.705Z,10.00
2019-05-25T22:59:56.882Z,7.63
2019-05-25T23:02:29.734Z,9.67
2019-05-25T23:05:02.643Z,10.70
2019-05-25T23:07:36.246Z,10.40
2019-05-25T23:10:12.244Z,11.90
2019-05-25T23:12:43.596Z,9.37
2019-05-25T23:15:17.768Z,6.90
2019-05-25T23:17:49.418Z,10.30
2019-05-25T23:20:21.763Z,9.57
2019-05-25T23:22:54.937Z,11.37
2019-05-25T23:25:27.210Z,6.57
2019-05-25T23:27:58.611Z,10.97
2019-05-25T23:30:30.127Z,10.03
2019-05-25T23:33:02.098Z,11.53
2019-05-25T23:35:35.968Z,9.90
2019-05-25T23:38:09.366Z,9.63
2019-05-25T23:40:41.720Z,9.20
2019-05-25T23:43:13.944Z,9.90
2019-05-25T23:45:47.319Z,8.10
2019-05-25T23:48:19.474Z,8.90
2019-05-25T23:50:52.619Z,9.13
2019-05-25T23:53:24.504Z,7.37
2019-05-25T23:55:57.577Z,12.30
2019-05-25T23:58:30.032Z,9.20
